sensor_id;sensor_type;location;lat;lon;timestamp;temperature;humidity
26336;DHT22;14047;50.936;4.654;2023-08-08T00:02:02;13.70;99.90
26336;DHT22;14047;50.936;4.654;2023-08-08T00:04:28;13.70;99.90
26336;DHT22;14047;50.936;4.654;2023-08-08T00:06:54;13.80;99.90
26336;DHT22;14047;50.936;4.654;2023-08-08T00:09:20;13.80;99.90
26336;DHT22;14047;50.936;4.654;2023-08-08T00:11:46;13.80;99.90
26336;DHT22;14047;50.936;4.654;2023-08-08T00:14:12;13.80;99.90
26336;DHT22;14047;50.936;4.654;2023-08-08T00:16:37;13.90;99.90
26336;DHT22;14047;50.936;4.654;2023-08-08T00:19:03;13.90;99.90
26336;DHT22;14047;50.936;4.654;2023-08-08T00:21:29;13.80;99.90
26336;DHT22;14047;50.936;4.654;2023-08-08T00:23:55;13.90;99.90
26336;DHT22;14047;50.936;4.654;2023-08-08T00:26:21;13.90;99.90
26336;DHT22;14047;50.936;4.654;2023-08-08T00:28:47;13.80;99.90
26336;DHT22;14047;50.936;4.654;2023-08-08T00:31:13;13.90;99.90
26336;DHT22;14047;50.936;4.654;2023-08-08T00:33:42;13.90;99.90
26336;DHT22;14047;50.936;4.654;2023-08-08T00:36:08;13.90;99.90
26336;DHT22;14047;50.936;4.654;2023-08-08T00:38:34;13.90;99.90
26336;DHT22;14047;50.936;4.654;2023-08-08T00:41:00;13.80;99.90
26336;DHT22;14047;50.936;4.654;2023-08-08T00:43:26;13.90;99.90
26336;DHT22;14047;50.936;4.654;2023-08-08T00:45:52;13.80;99.90
26336;DHT22;14047;50.936;4.654;2023-08-08T00:48:18;13.80;99.90
26336;DHT22;14047;50.936;4.654;2023-08-08T00:50:45;13.80;99.90
26336;DHT22;14047;50.936;4.654;2023-08-08T00:53:14;13.80;99.90
26336;DHT22;14047;50.936;4.654;2023-08-08T00:55:42;13.80;99.90
26336;DHT22;14047;50.936;4.654;2023-08-08T00:58:08;13.80;99.90
26336;DHT22;14047;50.936;4.654;2023-08-08T01:00:34;13.80;99.90
26336;DHT22;14047;50.936;4.654;2023-08-08T01:03:00;13.80;99.90
26336;DHT22;14047;50.936;4.654;2023-08-08T01:05:30;13.90;99.90
26336;DHT22;14047;50.936;4.654;2023-08-08T01:08:05;13.90;99.90
26336;DHT22;14047;50.936;4.654;2023-08-08T01:10:36;14.00;99.90
26336;DHT22;14047;50.936;4.654;2023-08-08T01:13:07;14.00;99.90
26336;DHT22;14047;50.936;4.654;2023-08-08T01:15:36;14.00;99.90
26336;DHT22;14047;50.936;4.654;2023-08-08T01:18:07;13.90;99.90
26336;DHT22;14047;50.936;4.654;2023-08-08T01:20:34;14.00;99.90
26336;DHT22;14047;50.936;4.654;2023-08-08T01:25:48;14.10;99.90
26336;DHT22;14047;50.936;4.654;2023-08-08T01:28:15;14.10;99.90
26336;DHT22;14047;50.936;4.654;2023-08-08T01:30:41;14.00;99.90
26336;DHT22;14047;50.936;4.654;2023-08-08T01:33:08;14.10;99.90
26336;DHT22;14047;50.936;4.654;2023-08-08T01:35:37;14.10;99.90
26336;DHT22;14047;50.936;4.654;2023-08-08T01:38:14;14.10;99.90
26336;DHT22;14047;50.936;4.654;2023-08-08T01:40:43;14.10;99.90
26336;DHT22;14047;50.936;4.654;2023-08-08T01:43:10;14.10;99.90
26336;DHT22;14047;50.936;4.654;2023-08-08T01:45:37;14.20;99.90
26336;DHT22;14047;50.936;4.654;2023-08-08T01:48:11;14.20;99.90
26336;DHT22;14047;50.936;4.654;2023-08-08T01:50:37;14.30;99.90
26336;DHT22;14047;50.936;4.654;2023-08-08T01:53:04;14.20;99.90
26336;DHT22;14047;50.936;4.654;2023-08-08T01:55:30;14.20;99.90
26336;DHT22;14047;50.936;4.654;2023-08-08T01:57:57;14.20;99.90
26336;DHT22;14047;50.936;4.654;2023-08-08T02:00:23;14.20;99.90
26336;DHT22;14047;50.936;4.654;2023-08-08T02:02:49;14.20;99.90
26336;DHT22;14047;50.936;4.654;2023-08-08T02:05:15;14.30;99.90
26336;DHT22;14047;50.936;4.654;2023-08-08T02:07:41;14.30;99.90
26336;DHT22;14047;50.936;4.654;2023-08-08T02:10:07;14.20;99.90
26336;DHT22;14047;50.936;4.654;2023-08-08T02:12:33;14.20;99.90
26336;DHT22;14047;50.936;4.654;2023-08-08T02:14:59;14.20;99.90
26336;DHT22;14047;50.936;4.654;2023-08-08T02:17:25;14.20;99.90
26336;DHT22;14047;50.936;4.654;2023-08-08T02:19:52;14.20;99.90
26336;DHT22;14047;50.936;4.654;2023-08-08T02:22:19;14.20;99.90
26336;DHT22;14047;50.936;4.654;2023-08-08T02:24:45;14.20;99.90
26336;DHT22;14047;50.936;4.654;2023-08-08T02:27:11;14.10;99.90
26336;DHT22;14047;50.936;4.654;2023-08-08T02:29:37;14.20;99.90
26336;DHT22;14047;50.936;4.654;2023-08-08T02:32:04;14.20;99.90
26336;DHT22;14047;50.936;4.654;2023-08-08T02:34:30;14.20;99.90
26336;DHT22;14047;50.936;4.654;2023-08-08T02:36:56;14.30;99.90
26336;DHT22;14047;50.936;4.654;2023-08-08T02:39:22;14.30;99.90
26336;DHT22;14047;50.936;4.654;2023-08-08T02:41:48;14.30;99.90
26336;DHT22;14047;50.936;4.654;2023-08-08T02:44:14;14.30;99.90
26336;DHT22;14047;50.936;4.654;2023-08-08T02:46:40;14.30;99.90
26336;DHT22;14047;50.936;4.654;2023-08-08T02:49:06;14.30;99.90
26336;DHT22;14047;50.936;4.654;2023-08-08T02:51:32;14.30;99.90
26336;DHT22;14047;50.936;4.654;2023-08-08T02:53:58;14.20;99.90
26336;DHT22;14047;50.936;4.654;2023-08-08T02:56:24;14.20;99.90
26336;DHT22;14047;50.936;4.654;2023-08-08T02:58:52;14.20;99.90
26336;DHT22;14047;50.936;4.654;2023-08-08T03:01:17;14.10;99.90
26336;DHT22;14047;50.936;4.654;2023-08-08T03:03:46;14.10;99.90
26336;DHT22;14047;50.936;4.654;2023-08-08T03:06:13;14.10;99.90
26336;DHT22;14047;50.936;4.654;2023-08-08T03:08:39;14.00;99.90
26336;DHT22;14047;50.936;4.654;2023-08-08T03:11:06;14.00;99.90
26336;DHT22;14047;50.936;4.654;2023-08-08T03:13:32;14.00;99.90
26336;DHT22;14047;50.936;4.654;2023-08-08T03:15:58;14.00;99.90
26336;DHT22;14047;50.936;4.654;2023-08-08T03:18:24;14.00;99.90
26336;DHT22;14047;50.936;4.654;2023-08-08T03:20:52;14.00;99.90
26336;DHT22;14047;50.936;4.654;2023-08-08T03:23:19;13.90;99.90
26336;DHT22;14047;50.936;4.654;2023-08-08T03:25:45;13.90;99.90
26336;DHT22;14047;50.936;4.654;2023-08-08T03:28:13;13.90;99.90
26336;DHT22;14047;50.936;4.654;2023-08-08T03:30:39;13.90;99.90
26336;DHT22;14047;50.936;4.654;2023-08-08T03:33:07;13.90;99.90
26336;DHT22;14047;50.936;4.654;2023-08-08T03:35:33;13.80;99.90
26336;DHT22;14047;50.936;4.654;2023-08-08T03:38:00;13.90;99.90
26336;DHT22;14047;50.936;4.654;2023-08-08T03:40:26;13.80;99.90
26336;DHT22;14047;50.936;4.654;2023-08-08T03:42:52;13.80;99.90
26336;DHT22;14047;50.936;4.654;2023-08-08T03:45:18;13.80;99.90
26336;DHT22;14047;50.936;4.654;2023-08-08T03:47:45;13.80;99.90
26336;DHT22;14047;50.936;4.654;2023-08-08T03:50:11;13.80;99.90
26336;DHT22;14047;50.936;4.654;2023-08-08T03:52:37;13.70;99.90
26336;DHT22;14047;50.936;4.654;2023-08-08T03:55:07;13.60;99.90
26336;DHT22;14047;50.936;4.654;2023-08-08T03:57:33;13.50;99.90
26336;DHT22;14047;50.936;4.654;2023-08-08T03:59:59;13.50;99.90
26336;DHT22;14047;50.936;4.654;2023-08-08T04:02:25;13.40;99.90
26336;DHT22;14047;50.936;4.654;2023-08-08T04:04:51;13.40;99.90
26336;DHT22;14047;50.936;4.654;2023-08-08T04:07:18;13.50;99.90
26336;DHT22;14047;50.936;4.654;2023-08-08T04:09:44;13.50;99.90
26336;DHT22;14047;50.936;4.654;2023-08-08T04:12:10;13.50;99.90
26336;DHT22;14047;50.936;4.654;2023-08-08T04:14:35;13.50;99.90
26336;DHT22;14047;50.936;4.654;2023-08-08T04:17:01;13.50;99.90
26336;DHT22;14047;50.936;4.654;2023-08-08T04:19:28;13.40;99.90
26336;DHT22;14047;50.936;4.654;2023-08-08T04:21:54;13.40;99.90
26336;DHT22;14047;50.936;4.654;2023-08-08T04:24:20;13.50;99.90
26336;DHT22;14047;50.936;4.654;2023-08-08T04:26:46;13.50;99.90
26336;DHT22;14047;50.936;4.654;2023-08-08T04:29:12;13.50;99.90
26336;DHT22;14047;50.936;4.654;2023-08-08T04:31:38;13.50;99.90
26336;DHT22;14047;50.936;4.654;2023-08-08T04:34:04;13.50;99.90
26336;DHT22;14047;50.936;4.654;2023-08-08T04:36:30;13.50;99.90
26336;DHT22;14047;50.936;4.654;2023-08-08T04:38:56;13.50;99.90
26336;DHT22;14047;50.936;4.654;2023-08-08T04:41:22;13.60;99.90
26336;DHT22;14047;50.936;4.654;2023-08-08T04:43:48;13.70;99.90
26336;DHT22;14047;50.936;4.654;2023-08-08T04:46:13;13.70;99.90
26336;DHT22;14047;50.936;4.654;2023-08-08T04:48:39;13.70;99.90
26336;DHT22;14047;50.936;4.654;2023-08-08T04:51:06;13.70;99.90
26336;DHT22;14047;50.936;4.654;2023-08-08T04:53:32;13.60;99.90
26336;DHT22;14047;50.936;4.654;2023-08-08T04:55:58;13.60;99.90
26336;DHT22;14047;50.936;4.654;2023-08-08T04:58:24;13.60;99.90
26336;DHT22;14047;50.936;4.654;2023-08-08T05:00:50;13.60;99.90
26336;DHT22;14047;50.936;4.654;2023-08-08T05:03:20;13.70;99.90
26336;DHT22;14047;50.936;4.654;2023-08-08T05:05:47;13.80;99.90
26336;DHT22;14047;50.936;4.654;2023-08-08T05:08:13;13.90;99.90
26336;DHT22;14047;50.936;4.654;2023-08-08T05:10:43;13.90;99.90
26336;DHT22;14047;50.936;4.654;2023-08-08T05:13:09;13.90;99.90
26336;DHT22;14047;50.936;4.654;2023-08-08T05:15:36;14.00;99.90
26336;DHT22;14047;50.936;4.654;2023-08-08T05:18:02;14.10;99.90
26336;DHT22;14047;50.936;4.654;2023-08-08T05:20:28;14.10;99.90
26336;DHT22;14047;50.936;4.654;2023-08-08T05:22:54;14.20;99.90
26336;DHT22;14047;50.936;4.654;2023-08-08T05:25:20;14.30;99.90
26336;DHT22;14047;50.936;4.654;2023-08-08T05:27:46;14.30;99.90
26336;DHT22;14047;50.936;4.654;2023-08-08T05:30:12;14.30;99.90
26336;DHT22;14047;50.936;4.654;2023-08-08T05:32:38;14.30;99.90
26336;DHT22;14047;50.936;4.654;2023-08-08T05:35:04;14.40;99.90
26336;DHT22;14047;50.936;4.654;2023-08-08T05:37:31;14.40;99.90
26336;DHT22;14047;50.936;4.654;2023-08-08T05:39:57;14.50;99.90
26336;DHT22;14047;50.936;4.654;2023-08-08T05:42:22;14.50;99.90
26336;DHT22;14047;50.936;4.654;2023-08-08T05:44:48;14.60;99.90
26336;DHT22;14047;50.936;4.654;2023-08-08T05:47:14;14.60;99.90
26336;DHT22;14047;50.936;4.654;2023-08-08T05:49:40;14.70;99.90
26336;DHT22;14047;50.936;4.654;2023-08-08T05:52:08;14.70;99.90
26336;DHT22;14047;50.936;4.654;2023-08-08T05:54:34;14.70;99.90
26336;DHT22;14047;50.936;4.654;2023-08-08T05:57:01;14.90;99.90
26336;DHT22;14047;50.936;4.654;2023-08-08T05:59:27;14.90;99.90
26336;DHT22;14047;50.936;4.654;2023-08-08T06:01:53;15.00;99.90
26336;DHT22;14047;50.936;4.654;2023-08-08T06:04:19;15.10;99.90
26336;DHT22;14047;50.936;4.654;2023-08-08T06:06:45;15.20;99.90
26336;DHT22;14047;50.936;4.654;2023-08-08T06:09:15;15.30;99.90
26336;DHT22;14047;50.936;4.654;2023-08-08T06:11:41;15.30;99.90
26336;DHT22;14047;50.936;4.654;2023-08-08T06:14:07;15.40;99.90
26336;DHT22;14047;50.936;4.654;2023-08-08T06:16:33;15.50;99.90
26336;DHT22;14047;50.936;4.654;2023-08-08T06:18:58;15.50;99.90
26336;DHT22;14047;50.936;4.654;2023-08-08T06:21:25;15.50;99.90
26336;DHT22;14047;50.936;4.654;2023-08-08T06:23:51;15.50;99.90
26336;DHT22;14047;50.936;4.654;2023-08-08T06:26:21;15.50;99.90
26336;DHT22;14047;50.936;4.654;2023-08-08T06:28:47;15.60;99.90
26336;DHT22;14047;50.936;4.654;2023-08-08T06:31:14;15.60;99.90
26336;DHT22;14047;50.936;4.654;2023-08-08T06:33:40;15.60;99.90
26336;DHT22;14047;50.936;4.654;2023-08-08T06:36:06;15.50;99.90
26336;DHT22;14047;50.936;4.654;2023-08-08T06:38:32;15.50;99.90
26336;DHT22;14047;50.936;4.654;2023-08-08T06:41:00;15.40;99.90
26336;DHT22;14047;50.936;4.654;2023-08-08T06:43:26;15.50;99.90
26336;DHT22;14047;50.936;4.654;2023-08-08T06:45:52;15.60;99.90
26336;DHT22;14047;50.936;4.654;2023-08-08T06:48:18;15.60;99.90
26336;DHT22;14047;50.936;4.654;2023-08-08T06:50:44;15.70;99.90
26336;DHT22;14047;50.936;4.654;2023-08-08T06:53:10;15.70;99.90
26336;DHT22;14047;50.936;4.654;2023-08-08T06:55:36;16.00;99.90
26336;DHT22;14047;50.936;4.654;2023-08-08T06:58:02;16.10;99.90
26336;DHT22;14047;50.936;4.654;2023-08-08T07:00:28;16.20;99.90
26336;DHT22;14047;50.936;4.654;2023-08-08T07:02:55;16.20;99.90
26336;DHT22;14047;50.936;4.654;2023-08-08T07:05:21;16.20;99.90
26336;DHT22;14047;50.936;4.654;2023-08-08T07:07:50;16.30;99.90
26336;DHT22;14047;50.936;4.654;2023-08-08T07:10:16;16.40;99.90
26336;DHT22;14047;50.936;4.654;2023-08-08T07:12:42;16.60;99.90
26336;DHT22;14047;50.936;4.654;2023-08-08T07:15:09;16.80;99.90
26336;DHT22;14047;50.936;4.654;2023-08-08T07:17:35;17.00;99.90
26336;DHT22;14047;50.936;4.654;2023-08-08T07:20:02;17.10;99.90
26336;DHT22;14047;50.936;4.654;2023-08-08T07:22:28;17.10;99.90
26336;DHT22;14047;50.936;4.654;2023-08-08T07:24:54;17.10;99.90
26336;DHT22;14047;50.936;4.654;2023-08-08T07:27:20;17.00;99.90
26336;DHT22;14047;50.936;4.654;2023-08-08T07:29:46;17.10;99.90
26336;DHT22;14047;50.936;4.654;2023-08-08T07:32:12;17.20;99.90
26336;DHT22;14047;50.936;4.654;2023-08-08T07:34:37;17.40;99.90
26336;DHT22;14047;50.936;4.654;2023-08-08T07:37:03;17.40;99.90
26336;DHT22;14047;50.936;4.654;2023-08-08T07:39:29;17.50;99.90
26336;DHT22;14047;50.936;4.654;2023-08-08T07:41:55;17.70;99.90
26336;DHT22;14047;50.936;4.654;2023-08-08T07:44:23;17.70;99.90
26336;DHT22;14047;50.936;4.654;2023-08-08T07:46:49;17.70;99.90
26336;DHT22;14047;50.936;4.654;2023-08-08T07:49:14;17.60;99.90
26336;DHT22;14047;50.936;4.654;2023-08-08T07:51:41;17.70;99.90
26336;DHT22;14047;50.936;4.654;2023-08-08T07:54:06;17.70;99.90
26336;DHT22;14047;50.936;4.654;2023-08-08T07:56:35;17.70;99.90
26336;DHT22;14047;50.936;4.654;2023-08-08T07:59:01;17.90;99.90
26336;DHT22;14047;50.936;4.654;2023-08-08T08:01:28;18.10;99.90
26336;DHT22;14047;50.936;4.654;2023-08-08T08:03:54;18.20;99.90
26336;DHT22;14047;50.936;4.654;2023-08-08T08:06:20;18.20;99.90
26336;DHT22;14047;50.936;4.654;2023-08-08T08:08:46;18.30;99.90
26336;DHT22;14047;50.936;4.654;2023-08-08T08:11:12;18.20;99.90
26336;DHT22;14047;50.936;4.654;2023-08-08T08:13:39;18.30;99.90
26336;DHT22;14047;50.936;4.654;2023-08-08T08:16:05;18.20;99.90
26336;DHT22;14047;50.936;4.654;2023-08-08T08:18:31;18.00;99.90
26336;DHT22;14047;50.936;4.654;2023-08-08T08:20:59;17.90;99.90
26336;DHT22;14047;50.936;4.654;2023-08-08T08:23:25;17.90;99.90
26336;DHT22;14047;50.936;4.654;2023-08-08T08:25:51;18.00;99.90
26336;DHT22;14047;50.936;4.654;2023-08-08T08:28:17;18.30;99.90
26336;DHT22;14047;50.936;4.654;2023-08-08T08:30:43;18.50;99.90
26336;DHT22;14047;50.936;4.654;2023-08-08T08:33:09;18.60;99.90
26336;DHT22;14047;50.936;4.654;2023-08-08T08:35:35;18.70;99.90
26336;DHT22;14047;50.936;4.654;2023-08-08T08:38:02;18.60;99.90
26336;DHT22;14047;50.936;4.654;2023-08-08T08:40:30;18.60;99.90
26336;DHT22;14047;50.936;4.654;2023-08-08T08:43:00;18.50;99.90
26336;DHT22;14047;50.936;4.654;2023-08-08T08:45:28;18.30;99.90
26336;DHT22;14047;50.936;4.654;2023-08-08T08:47:56;18.10;99.90
26336;DHT22;14047;50.936;4.654;2023-08-08T08:50:23;18.20;99.90
26336;DHT22;14047;50.936;4.654;2023-08-08T08:52:53;18.20;99.90
26336;DHT22;14047;50.936;4.654;2023-08-08T08:55:21;18.30;99.90
26336;DHT22;14047;50.936;4.654;2023-08-08T08:57:49;18.30;99.90
26336;DHT22;14047;50.936;4.654;2023-08-08T09:00:16;18.50;99.90
26336;DHT22;14047;50.936;4.654;2023-08-08T09:02:43;18.70;99.90
26336;DHT22;14047;50.936;4.654;2023-08-08T09:05:11;18.70;99.90
26336;DHT22;14047;50.936;4.654;2023-08-08T09:07:37;18.80;99.90
26336;DHT22;14047;50.936;4.654;2023-08-08T09:10:04;18.60;99.90
26336;DHT22;14047;50.936;4.654;2023-08-08T09:12:31;18.70;99.90
26336;DHT22;14047;50.936;4.654;2023-08-08T09:14:58;18.80;99.90
26336;DHT22;14047;50.936;4.654;2023-08-08T09:17:27;18.80;99.90
26336;DHT22;14047;50.936;4.654;2023-08-08T09:19:56;18.90;99.90
26336;DHT22;14047;50.936;4.654;2023-08-08T09:22:24;19.00;99.90
26336;DHT22;14047;50.936;4.654;2023-08-08T09:24:52;19.20;99.90
26336;DHT22;14047;50.936;4.654;2023-08-08T09:27:18;19.30;99.90
26336;DHT22;14047;50.936;4.654;2023-08-08T09:29:44;19.10;99.90
26336;DHT22;14047;50.936;4.654;2023-08-08T09:32:10;19.20;99.90
26336;DHT22;14047;50.936;4.654;2023-08-08T09:34:41;19.30;99.90
26336;DHT22;14047;50.936;4.654;2023-08-08T09:37:08;19.40;99.90
26336;DHT22;14047;50.936;4.654;2023-08-08T09:39:36;19.40;99.90
26336;DHT22;14047;50.936;4.654;2023-08-08T09:42:03;19.60;99.90
26336;DHT22;14047;50.936;4.654;2023-08-08T09:44:30;19.80;99.90
26336;DHT22;14047;50.936;4.654;2023-08-08T09:46:57;20.00;99.90
26336;DHT22;14047;50.936;4.654;2023-08-08T09:49:23;20.00;99.90
26336;DHT22;14047;50.936;4.654;2023-08-08T09:51:49;20.10;99.90
26336;DHT22;14047;50.936;4.654;2023-08-08T09:54:16;20.00;99.90
26336;DHT22;14047;50.936;4.654;2023-08-08T09:56:43;20.20;99.90
26336;DHT22;14047;50.936;4.654;2023-08-08T09:59:09;20.10;99.90
26336;DHT22;14047;50.936;4.654;2023-08-08T10:01:36;19.80;99.90
26336;DHT22;14047;50.936;4.654;2023-08-08T10:04:06;19.60;99.90
26336;DHT22;14047;50.936;4.654;2023-08-08T10:06:32;19.50;99.90
26336;DHT22;14047;50.936;4.654;2023-08-08T10:08:59;19.40;99.90
26336;DHT22;14047;50.936;4.654;2023-08-08T10:11:26;19.20;99.90
26336;DHT22;14047;50.936;4.654;2023-08-08T10:13:53;19.00;99.90
26336;DHT22;14047;50.936;4.654;2023-08-08T10:16:22;19.00;99.90
26336;DHT22;14047;50.936;4.654;2023-08-08T10:19:01;19.20;99.90
26336;DHT22;14047;50.936;4.654;2023-08-08T10:21:28;19.40;99.90
26336;DHT22;14047;50.936;4.654;2023-08-08T10:24:20;19.40;99.90
26336;DHT22;14047;50.936;4.654;2023-08-08T10:26:59;19.40;99.90
26336;DHT22;14047;50.936;4.654;2023-08-08T10:29:30;19.40;99.90
26336;DHT22;14047;50.936;4.654;2023-08-08T10:32:04;19.20;99.90
26336;DHT22;14047;50.936;4.654;2023-08-08T10:34:38;19.20;99.90
26336;DHT22;14047;50.936;4.654;2023-08-08T10:37:08;19.50;99.90
26336;DHT22;14047;50.936;4.654;2023-08-08T10:39:34;19.90;99.90
26336;DHT22;14047;50.936;4.654;2023-08-08T10:42:03;20.10;99.90
26336;DHT22;14047;50.936;4.654;2023-08-08T10:44:30;20.40;99.90
26336;DHT22;14047;50.936;4.654;2023-08-08T10:46:56;20.40;99.90
26336;DHT22;14047;50.936;4.654;2023-08-08T10:49:23;20.30;99.90
26336;DHT22;14047;50.936;4.654;2023-08-08T10:51:49;20.00;99.90
26336;DHT22;14047;50.936;4.654;2023-08-08T10:54:18;19.90;99.90
26336;DHT22;14047;50.936;4.654;2023-08-08T10:56:52;19.70;99.90
26336;DHT22;14047;50.936;4.654;2023-08-08T10:59:26;19.80;99.90
26336;DHT22;14047;50.936;4.654;2023-08-08T11:01:52;19.90;99.90
26336;DHT22;14047;50.936;4.654;2023-08-08T11:04:20;20.20;99.90
26336;DHT22;14047;50.936;4.654;2023-08-08T11:06:47;20.60;99.90
26336;DHT22;14047;50.936;4.654;2023-08-08T11:09:15;20.70;99.90
26336;DHT22;14047;50.936;4.654;2023-08-08T11:11:42;20.80;99.90
26336;DHT22;14047;50.936;4.654;2023-08-08T11:14:13;20.90;99.90
26336;DHT22;14047;50.936;4.654;2023-08-08T11:16:40;20.80;99.90
26336;DHT22;14047;50.936;4.654;2023-08-08T11:19:06;20.30;99.90
26336;DHT22;14047;50.936;4.654;2023-08-08T11:21:46;20.00;99.90
26336;DHT22;14047;50.936;4.654;2023-08-08T11:24:12;20.00;99.90
26336;DHT22;14047;50.936;4.654;2023-08-08T11:26:40;19.90;99.90
26336;DHT22;14047;50.936;4.654;2023-08-08T11:29:07;20.10;99.90
26336;DHT22;14047;50.936;4.654;2023-08-08T11:31:36;20.30;99.90
26336;DHT22;14047;50.936;4.654;2023-08-08T11:34:04;20.50;99.90
26336;DHT22;14047;50.936;4.654;2023-08-08T11:36:34;20.80;99.90
26336;DHT22;14047;50.936;4.654;2023-08-08T11:39:02;20.90;99.90
26336;DHT22;14047;50.936;4.654;2023-08-08T11:41:34;21.30;99.90
26336;DHT22;14047;50.936;4.654;2023-08-08T11:44:03;21.40;99.90
26336;DHT22;14047;50.936;4.654;2023-08-08T11:46:29;21.60;99.90
26336;DHT22;14047;50.936;4.654;2023-08-08T11:49:03;21.20;99.90
26336;DHT22;14047;50.936;4.654;2023-08-08T11:51:29;21.30;99.90
26336;DHT22;14047;50.936;4.654;2023-08-08T11:53:55;21.50;99.90
26336;DHT22;14047;50.936;4.654;2023-08-08T11:56:21;21.60;99.90
26336;DHT22;14047;50.936;4.654;2023-08-08T11:58:51;21.70;99.90
26336;DHT22;14047;50.936;4.654;2023-08-08T12:01:26;21.50;99.90
26336;DHT22;14047;50.936;4.654;2023-08-08T12:03:53;21.20;99.90
26336;DHT22;14047;50.936;4.654;2023-08-08T12:06:20;21.00;99.90
26336;DHT22;14047;50.936;4.654;2023-08-08T12:08:47;21.20;99.90
26336;DHT22;14047;50.936;4.654;2023-08-08T12:11:14;21.40;99.90
26336;DHT22;14047;50.936;4.654;2023-08-08T12:13:42;21.70;99.90
26336;DHT22;14047;50.936;4.654;2023-08-08T12:16:09;21.80;99.90
26336;DHT22;14047;50.936;4.654;2023-08-08T12:18:37;21.60;99.90
26336;DHT22;14047;50.936;4.654;2023-08-08T12:21:07;21.40;99.90
26336;DHT22;14047;50.936;4.654;2023-08-08T12:23:35;21.30;99.90
26336;DHT22;14047;50.936;4.654;2023-08-08T12:26:03;21.40;99.90
26336;DHT22;14047;50.936;4.654;2023-08-08T12:28:31;21.30;99.90
26336;DHT22;14047;50.936;4.654;2023-08-08T12:30:57;21.20;99.90
26336;DHT22;14047;50.936;4.654;2023-08-08T12:33:23;21.20;99.90
26336;DHT22;14047;50.936;4.654;2023-08-08T12:35:51;21.30;99.90
26336;DHT22;14047;50.936;4.654;2023-08-08T12:38:17;21.50;99.90
26336;DHT22;14047;50.936;4.654;2023-08-08T12:40:44;21.80;99.90
26336;DHT22;14047;50.936;4.654;2023-08-08T12:43:10;21.90;99.90
26336;DHT22;14047;50.936;4.654;2023-08-08T12:45:46;21.60;99.90
26336;DHT22;14047;50.936;4.654;2023-08-08T12:48:13;21.50;99.90
26336;DHT22;14047;50.936;4.654;2023-08-08T12:50:39;21.40;99.90
26336;DHT22;14047;50.936;4.654;2023-08-08T12:53:06;21.10;99.90
26336;DHT22;14047;50.936;4.654;2023-08-08T12:55:33;21.20;99.90
26336;DHT22;14047;50.936;4.654;2023-08-08T12:57:59;21.50;99.90
26336;DHT22;14047;50.936;4.654;2023-08-08T13:00:25;21.70;99.90
26336;DHT22;14047;50.936;4.654;2023-08-08T13:02:51;21.90;99.90
26336;DHT22;14047;50.936;4.654;2023-08-08T13:05:17;22.20;99.90
26336;DHT22;14047;50.936;4.654;2023-08-08T13:07:43;22.30;99.90
26336;DHT22;14047;50.936;4.654;2023-08-08T13:10:09;22.30;99.90
26336;DHT22;14047;50.936;4.654;2023-08-08T13:12:38;22.30;99.90
26336;DHT22;14047;50.936;4.654;2023-08-08T13:15:04;22.40;99.90
26336;DHT22;14047;50.936;4.654;2023-08-08T13:17:31;22.50;99.90
26336;DHT22;14047;50.936;4.654;2023-08-08T13:19:57;22.30;99.90
26336;DHT22;14047;50.936;4.654;2023-08-08T13:22:23;22.10;99.90
26336;DHT22;14047;50.936;4.654;2023-08-08T13:24:50;22.10;99.90
26336;DHT22;14047;50.936;4.654;2023-08-08T13:27:16;22.00;99.90
26336;DHT22;14047;50.936;4.654;2023-08-08T13:29:42;21.80;99.90
26336;DHT22;14047;50.936;4.654;2023-08-08T13:32:08;21.70;99.90
26336;DHT22;14047;50.936;4.654;2023-08-08T13:34:37;21.50;99.90
26336;DHT22;14047;50.936;4.654;2023-08-08T13:37:03;21.60;99.90
26336;DHT22;14047;50.936;4.654;2023-08-08T13:39:30;21.80;99.90
26336;DHT22;14047;50.936;4.654;2023-08-08T13:41:59;22.00;99.90
26336;DHT22;14047;50.936;4.654;2023-08-08T13:44:25;22.00;99.90
26336;DHT22;14047;50.936;4.654;2023-08-08T13:46:51;22.40;99.90
26336;DHT22;14047;50.936;4.654;2023-08-08T13:49:17;22.40;99.90
26336;DHT22;14047;50.936;4.654;2023-08-08T13:51:43;22.20;99.90
26336;DHT22;14047;50.936;4.654;2023-08-08T13:54:09;22.60;99.90
26336;DHT22;14047;50.936;4.654;2023-08-08T13:56:35;22.80;99.90
26336;DHT22;14047;50.936;4.654;2023-08-08T13:59:01;23.00;99.90
26336;DHT22;14047;50.936;4.654;2023-08-08T14:01:27;23.20;99.90
26336;DHT22;14047;50.936;4.654;2023-08-08T14:03:53;23.20;99.90
26336;DHT22;14047;50.936;4.654;2023-08-08T14:06:19;22.80;99.90
26336;DHT22;14047;50.936;4.654;2023-08-08T14:08:45;22.30;99.90
26336;DHT22;14047;50.936;4.654;2023-08-08T14:11:11;22.10;99.90
26336;DHT22;14047;50.936;4.654;2023-08-08T14:13:37;22.20;99.90
26336;DHT22;14047;50.936;4.654;2023-08-08T14:16:04;22.40;99.90
26336;DHT22;14047;50.936;4.654;2023-08-08T14:18:30;22.60;99.90
26336;DHT22;14047;50.936;4.654;2023-08-08T14:20:56;22.50;99.90
26336;DHT22;14047;50.936;4.654;2023-08-08T14:23:22;22.20;99.90
26336;DHT22;14047;50.936;4.654;2023-08-08T14:25:48;22.10;99.90
26336;DHT22;14047;50.936;4.654;2023-08-08T14:28:14;21.90;99.90
26336;DHT22;14047;50.936;4.654;2023-08-08T14:30:40;22.10;99.90
26336;DHT22;14047;50.936;4.654;2023-08-08T14:33:06;22.30;99.90
26336;DHT22;14047;50.936;4.654;2023-08-08T14:35:32;22.40;99.90
26336;DHT22;14047;50.936;4.654;2023-08-08T14:37:58;22.40;99.90
26336;DHT22;14047;50.936;4.654;2023-08-08T14:40:24;22.50;99.90
26336;DHT22;14047;50.936;4.654;2023-08-08T14:42:50;22.70;99.90
26336;DHT22;14047;50.936;4.654;2023-08-08T14:45:16;22.60;99.90
26336;DHT22;14047;50.936;4.654;2023-08-08T14:47:42;22.40;99.90
26336;DHT22;14047;50.936;4.654;2023-08-08T14:50:08;22.00;99.90
26336;DHT22;14047;50.936;4.654;2023-08-08T14:52:34;21.50;99.90
26336;DHT22;14047;50.936;4.654;2023-08-08T14:55:00;21.30;99.90
26336;DHT22;14047;50.936;4.654;2023-08-08T14:57:26;21.10;99.90
26336;DHT22;14047;50.936;4.654;2023-08-08T14:59:52;20.80;99.90
26336;DHT22;14047;50.936;4.654;2023-08-08T15:02:18;20.80;99.90
26336;DHT22;14047;50.936;4.654;2023-08-08T15:04:44;20.80;99.90
26336;DHT22;14047;50.936;4.654;2023-08-08T15:07:10;20.90;99.90
26336;DHT22;14047;50.936;4.654;2023-08-08T15:09:36;20.70;99.90
26336;DHT22;14047;50.936;4.654;2023-08-08T15:12:03;20.60;99.90
26336;DHT22;14047;50.936;4.654;2023-08-08T15:14:29;20.70;99.90
26336;DHT22;14047;50.936;4.654;2023-08-08T15:16:55;20.70;99.90
26336;DHT22;14047;50.936;4.654;2023-08-08T15:19:22;20.60;99.90
26336;DHT22;14047;50.936;4.654;2023-08-08T15:21:48;20.80;99.90
26336;DHT22;14047;50.936;4.654;2023-08-08T15:24:15;20.70;99.90
26336;DHT22;14047;50.936;4.654;2023-08-08T15:26:42;20.60;99.90
26336;DHT22;14047;50.936;4.654;2023-08-08T15:29:08;20.50;99.90
26336;DHT22;14047;50.936;4.654;2023-08-08T15:31:34;20.70;99.90